createdAt,value
2023-03-13T00:02:28.196Z,1.00
2023-03-13T00:04:58.044Z,1.00
2023-03-13T00:07:30.363Z,1.00
2023-03-13T00:10:00.118Z,1.00
2023-03-13T00:12:29.899Z,1.00
2023-03-13T00:14:59.794Z,1.00
2023-03-13T00:17:30.166Z,1.00
2023-03-13T00:19:59.928Z,1.00
2023-03-13T00:22:32.239Z,1.00
2023-03-13T00:25:02.015Z,1.00
2023-03-13T00:27:36.131Z,1.00
2023-03-13T00:30:06.098Z,1.00
2023-03-13T00:32:35.895Z,1.00
2023-03-13T00:35:05.805Z,1.00
2023-03-13T00:37:38.270Z,1.00
2023-03-13T00:40:09.682Z,1.00
2023-03-13T00:42:39.426Z,1.00
2023-03-13T00:45:10.263Z,1.00
2023-03-13T00:47:40.016Z,1.00
2023-03-13T00:50:10.731Z,1.00
2023-03-13T00:52:43.030Z,1.00
2023-03-13T00:55:13.226Z,1.00
2023-03-13T00:57:42.966Z,1.00
2023-03-13T01:00:16.216Z,1.00
2023-03-13T01:02:46.418Z,1.00
2023-03-13T01:05:16.336Z,1.00
2023-03-13T01:07:48.679Z,1.00
2023-03-13T01:10:18.694Z,1.00
2023-03-13T01:12:48.427Z,1.00
2023-03-13T01:15:19.696Z,1.00
2023-03-13T01:17:49.536Z,1.00
2023-03-13T01:20:19.936Z,1.00
2023-03-13T01:22:52.299Z,1.00
2023-03-13T01:25:22.097Z,1.00
2023-03-13T01:27:52.033Z,1.00
2023-03-13T01:30:21.977Z,1.00
2023-03-13T01:32:51.815Z,1.00
2023-03-13T01:35:21.680Z,1.00
2023-03-13T01:37:54.067Z,1.00
2023-03-13T01:40:23.892Z,1.00
2023-03-13T01:42:55.068Z,1.00
2023-03-13T01:45:56.186Z,1.00
2023-03-13T01:48:29.726Z,1.00
2023-03-13T01:51:01.484Z,1.00
2023-03-13T01:53:35.915Z,1.00
2023-03-13T01:56:08.944Z,1.00
2023-03-13T01:58:40.396Z,1.00
2023-03-13T02:01:10.371Z,1.00
2023-03-13T02:03:40.570Z,1.00
2023-03-13T02:06:11.184Z,1.00
2023-03-13T02:08:49.366Z,1.00
2023-03-13T02:11:26.551Z,1.00
2023-03-13T02:13:58.467Z,1.00
2023-03-13T02:16:29.264Z,1.00
2023-03-13T02:18:59.196Z,1.00
2023-03-13T02:21:41.912Z,1.00
2023-03-13T02:24:21.089Z,1.00
2023-03-13T02:26:53.472Z,1.00
2023-03-13T02:29:23.686Z,1.00
2023-03-13T02:31:54.400Z,1.00
2023-03-13T02:34:28.813Z,1.00
2023-03-13T02:36:59.808Z,1.00
2023-03-13T02:39:31.161Z,1.00
2023-03-13T02:42:05.855Z,1.00
2023-03-13T02:44:40.212Z,1.00
2023-03-13T02:47:10.247Z,1.00
2023-03-13T02:49:40.163Z,1.00
2023-03-13T02:52:15.570Z,1.00
2023-03-13T02:54:47.591Z,1.00
2023-03-13T02:57:19.998Z,1.00
2023-03-13T02:59:49.830Z,1.00
2023-03-13T03:02:19.552Z,1.00
2023-03-13T03:04:49.290Z,1.00
2023-03-13T03:07:19.102Z,1.00
2023-03-13T03:09:48.862Z,1.00
2023-03-13T03:12:21.177Z,1.00
2023-03-13T03:14:51.092Z,1.00
2023-03-13T03:17:20.934Z,1.00
2023-03-13T03:19:50.700Z,1.00
2023-03-13T03:22:20.459Z,1.00
2023-03-13T03:24:50.161Z,1.00
2023-03-13T03:27:22.498Z,1.00
2023-03-13T03:29:52.224Z,1.00
2023-03-13T03:32:22.044Z,1.00
2023-03-13T03:34:52.678Z,2.30
2023-03-13T03:37:22.533Z,3.90
2023-03-13T03:39:52.320Z,5.00
2023-03-13T03:42:24.629Z,7.20
2023-03-13T03:44:54.321Z,8.10
2023-03-13T03:47:24.231Z,8.20
2023-03-13T03:49:54.087Z,8.50
2023-03-13T03:52:23.829Z,8.30
2023-03-13T03:55:02.040Z,8.50
2023-03-13T03:57:34.402Z,8.20
2023-03-13T04:00:05.296Z,8.70
2023-03-13T04:02:35.180Z,9.20
2023-03-13T04:05:05.351Z,8.50
2023-03-13T04:07:35.323Z,7.70
2023-03-13T04:10:05.176Z,7.70
2023-03-13T04:12:37.650Z,8.10
2023-03-13T04:15:08.206Z,7.80
2023-03-13T04:17:38.094Z,8.10
2023-03-13T04:20:10.334Z,7.80
2023-03-13T04:22:40.100Z,7.20
2023-03-13T04:25:11.256Z,6.70
2023-03-13T04:27:43.589Z,6.80
2023-03-13T04:30:16.313Z,7.50
2023-03-13T04:32:48.108Z,7.50
2023-03-13T04:35:18.084Z,8.00
2023-03-13T04:37:47.795Z,7.00
2023-03-13T04:40:17.574Z,6.90
2023-03-13T04:42:49.874Z,6.50
2023-03-13T04:45:19.777Z,7.20
2023-03-13T04:47:49.917Z,7.10
2023-03-13T04:50:20.050Z,6.00
2023-03-13T04:52:49.817Z,6.20
2023-03-13T04:55:19.700Z,4.80
2023-03-13T04:57:52.025Z,4.80
2023-03-13T05:00:22.478Z,4.80
2023-03-13T05:02:52.207Z,4.90
2023-03-13T05:05:21.964Z,4.80
2023-03-13T05:07:51.749Z,4.60
2023-03-13T05:10:21.706Z,4.40
2023-03-13T05:12:54.138Z,4.90
2023-03-13T05:15:23.840Z,4.80
2023-03-13T05:17:54.687Z,4.90
2023-03-13T05:20:24.574Z,4.90
2023-03-13T05:22:54.408Z,5.20
2023-03-13T05:25:24.118Z,4.90
2023-03-13T05:27:56.497Z,4.70
2023-03-13T05:30:28.311Z,4.60
2023-03-13T05:32:58.092Z,5.50
2023-03-13T05:35:27.887Z,4.00
2023-03-13T05:37:57.678Z,4.20
2023-03-13T05:40:27.458Z,4.30
2023-03-13T05:42:59.840Z,4.40
2023-03-13T05:45:29.614Z,4.10
2023-03-13T05:47:59.335Z,3.70
2023-03-13T05:50:29.238Z,3.10
2023-03-13T05:52:59.000Z,2.70
2023-03-13T05:55:28.858Z,1.70
2023-03-13T05:58:01.181Z,2.20
2023-03-13T06:00:31.116Z,2.60
2023-03-13T06:03:00.878Z,1.50
2023-03-13T06:05:30.603Z,1.90
2023-03-13T06:08:00.355Z,2.60
2023-03-13T06:10:30.238Z,2.30
2023-03-13T06:13:17.094Z,2.60
2023-03-13T06:15:54.143Z,2.50
2023-03-13T06:18:24.412Z,2.70
2023-03-13T06:21:00.001Z,3.00
2023-03-13T06:23:30.572Z,2.50
2023-03-13T06:26:00.349Z,2.40
2023-03-13T06:28:32.746Z,2.00
2023-03-13T06:31:04.901Z,2.40
2023-03-13T06:33:35.037Z,1.60
2023-03-13T06:36:05.525Z,1.60
2023-03-13T06:38:35.538Z,1.60
2023-03-13T06:41:05.273Z,1.00
2023-03-13T06:43:40.644Z,1.10
2023-03-13T06:46:11.350Z,1.60
2023-03-13T06:48:41.070Z,1.00
2023-03-13T06:51:14.286Z,1.00
2023-03-13T06:53:44.342Z,1.20
2023-03-13T06:56:14.741Z,1.70
2023-03-13T06:58:49.750Z,1.60
2023-03-13T07:01:21.059Z,1.00
2023-03-13T07:03:51.768Z,1.00
2023-03-13T07:06:21.549Z,1.00
2023-03-13T07:08:51.277Z,1.10
2023-03-13T07:11:21.179Z,1.50
2023-03-13T07:13:55.048Z,1.00
2023-03-13T07:16:28.192Z,1.20
2023-03-13T07:18:58.139Z,1.80
2023-03-13T07:21:27.937Z,1.80
2023-03-13T07:23:57.662Z,1.90
2023-03-13T07:26:27.367Z,1.90
2023-03-13T07:29:00.049Z,1.90
2023-03-13T07:31:33.935Z,1.80
2023-03-13T07:34:03.989Z,1.90
2023-03-13T07:36:35.461Z,1.90
2023-03-13T07:39:05.288Z,2.70
2023-03-13T07:41:35.097Z,3.00
2023-03-13T07:44:07.454Z,2.60
2023-03-13T07:46:37.268Z,2.20
2023-03-13T07:49:07.022Z,2.30
2023-03-13T07:51:43.546Z,1.90
2023-03-13T07:54:14.341Z,2.00
2023-03-13T07:56:44.122Z,2.00
2023-03-13T07:59:16.392Z,2.00
2023-03-13T08:01:46.134Z,1.90
2023-03-13T08:04:16.678Z,2.10
2023-03-13T08:06:46.424Z,1.00
2023-03-13T08:09:16.368Z,1.00
2023-03-13T08:11:48.041Z,1.00
2023-03-13T08:14:20.378Z,1.00
2023-03-13T08:16:50.380Z,1.00
2023-03-13T08:19:20.331Z,1.00
2023-03-13T08:21:50.082Z,1.00
2023-03-13T08:24:19.838Z,1.00
2023-03-13T08:26:49.569Z,1.00
2023-03-13T08:29:21.898Z,1.00
2023-03-13T08:31:53.176Z,1.00
2023-03-13T08:34:23.034Z,1.00
2023-03-13T08:36:52.993Z,1.00
2023-03-13T08:39:23.667Z,1.00
2023-03-13T08:41:53.510Z,1.00
2023-03-13T08:44:25.870Z,1.00
2023-03-13T08:46:56.975Z,1.00
2023-03-13T08:49:26.705Z,1.00
2023-03-13T08:51:56.774Z,1.00
2023-03-13T08:54:26.558Z,1.00
2023-03-13T08:56:56.255Z,1.00
2023-03-13T08:59:29.400Z,1.00
2023-03-13T09:01:59.175Z,1.00
2023-03-13T09:04:28.907Z,1.00
2023-03-13T09:06:58.625Z,1.00
2023-03-13T09:09:28.552Z,1.00
2023-03-13T09:11:58.308Z,1.00
2023-03-13T09:14:30.873Z,1.00
2023-03-13T09:17:00.928Z,1.00
2023-03-13T09:19:31.458Z,1.00
2023-03-13T09:22:01.255Z,1.00
2023-03-13T09:24:30.990Z,1.00
2023-03-13T09:27:01.778Z,1.00
2023-03-13T09:29:38.040Z,1.00
2023-03-13T09:32:08.592Z,1.00
2023-03-13T09:34:38.352Z,1.00
2023-03-13T09:37:08.902Z,1.00
2023-03-13T09:39:39.391Z,1.00
2023-03-13T09:42:16.656Z,1.00
2023-03-13T09:44:55.273Z,1.00
2023-03-13T09:47:30.504Z,1.00
2023-03-13T09:50:05.212Z,1.00
2023-03-13T09:52:41.331Z,1.00
2023-03-13T09:55:17.164Z,1.00
2023-03-13T09:57:52.332Z,1.00
2023-03-13T10:00:28.543Z,1.00
2023-03-13T10:03:00.019Z,1.00
2023-03-13T10:05:32.113Z,1.00
2023-03-13T10:08:13.071Z,1.00
2023-03-13T10:10:47.220Z,1.00
2023-03-13T10:13:25.032Z,1.00
2023-03-13T10:16:00.732Z,1.00
2023-03-13T10:18:30.623Z,1.00
2023-03-13T10:21:03.098Z,1.00
2023-03-13T10:23:40.967Z,1.00
2023-03-13T10:26:17.807Z,1.00
2023-03-13T10:28:48.191Z,1.00
2023-03-13T10:31:25.956Z,1.00
2023-03-13T10:33:55.801Z,1.00
2023-03-13T10:36:25.860Z,1.00
2023-03-13T10:38:57.205Z,1.00
2023-03-13T10:41:31.062Z,1.00
2023-03-13T10:44:03.934Z,1.00
2023-03-13T10:46:38.496Z,1.00
2023-03-13T10:49:18.468Z,1.00
2023-03-13T10:51:51.361Z,1.00
2023-03-13T10:54:26.875Z,1.00
2023-03-13T10:57:13.520Z,1.00
2023-03-13T10:59:47.879Z,1.00
2023-03-13T11:02:28.146Z,1.00
2023-03-13T11:04:59.845Z,1.00
2023-03-13T11:07:32.871Z,1.00
2023-03-13T11:10:05.332Z,1.00
2023-03-13T11:12:37.868Z,1.00
2023-03-13T11:15:18.250Z,1.00
2023-03-13T11:18:01.420Z,1.00
2023-03-13T11:20:35.584Z,1.00
2023-03-13T11:23:13.769Z,1.00
2023-03-13T11:25:51.039Z,1.00
2023-03-13T11:28:32.611Z,1.00
2023-03-13T11:31:22.447Z,1.00
2023-03-13T11:34:01.385Z,1.00
2023-03-13T11:36:37.520Z,1.00
2023-03-13T11:39:28.705Z,1.00
2023-03-13T11:42:03.630Z,1.00
2023-03-13T11:44:39.547Z,1.00
2023-03-13T11:47:29.136Z,1.00
2023-03-13T11:50:21.272Z,1.00
2023-03-13T11:53:03.604Z,1.00
2023-03-13T11:55:47.087Z,1.00
2023-03-13T11:58:41.860Z,1.00
2023-03-13T12:01:14.945Z,1.00
2023-03-13T12:03:54.313Z,1.00
2023-03-13T12:06:32.515Z,1.00
2023-03-13T12:09:09.377Z,1.00
2023-03-13T12:11:43.780Z,1.00
2023-03-13T12:14:21.281Z,1.00
2023-03-13T12:16:55.137Z,1.00
2023-03-13T12:19:32.405Z,1.00
2023-03-13T12:22:16.294Z,1.00
2023-03-13T12:24:52.679Z,1.00
2023-03-13T12:27:32.610Z,1.00
2023-03-13T12:30:06.322Z,1.00
2023-03-13T12:32:42.391Z,1.00
2023-03-13T12:35:23.412Z,1.00
2023-03-13T12:38:00.824Z,1.00
2023-03-13T12:40:37.603Z,1.00
2023-03-13T12:43:13.124Z,1.00
2023-03-13T12:45:57.288Z,1.00
2023-03-13T12:48:43.893Z,1.00
2023-03-13T12:51:29.352Z,1.00
2023-03-13T12:54:31.875Z,1.00
2023-03-13T12:57:24.751Z,1.00
2023-03-13T12:59:59.280Z,1.00
2023-03-13T13:02:32.354Z,1.00
2023-03-13T13:05:04.807Z,1.00
2023-03-13T13:07:36.523Z,1.00
2023-03-13T13:10:23.364Z,1.00
2023-03-13T13:13:21.100Z,1.00
2023-03-13T13:16:01.764Z,1.00
2023-03-13T13:18:33.077Z,1.00
2023-03-13T13:21:29.507Z,1.00
2023-03-13T13:24:36.939Z,1.00
2023-03-13T13:27:47.056Z,1.00
2023-03-13T13:30:32.896Z,1.00
2023-03-13T13:33:32.620Z,1.00
2023-03-13T13:36:31.158Z,1.00
2023-03-13T13:39:01.765Z,1.00
2023-03-13T13:41:40.321Z,1.00
2023-03-13T13:44:59.648Z,1.00
2023-03-13T13:47:33.680Z,1.00
2023-03-13T13:50:03.651Z,1.00
2023-03-13T13:52:38.628Z,1.00
2023-03-13T13:55:34.024Z,1.00
2023-03-13T13:58:07.038Z,1.00
2023-03-13T14:00:44.557Z,1.00
2023-03-13T14:03:24.377Z,1.00
2023-03-13T14:05:57.490Z,1.00
2023-03-13T14:08:31.731Z,1.00
2023-03-13T14:11:09.599Z,1.00
2023-03-13T14:13:39.391Z,1.00
2023-03-13T14:16:25.084Z,1.00
2023-03-13T14:18:55.506Z,1.00
2023-03-13T14:21:27.368Z,1.00
2023-03-13T14:23:57.466Z,1.00
2023-03-13T14:26:29.099Z,1.00
2023-03-13T14:29:02.801Z,1.00
2023-03-13T14:31:37.799Z,1.00
2023-03-13T14:34:09.694Z,1.00
2023-03-13T14:36:49.084Z,1.00
2023-03-13T14:39:22.273Z,1.00
2023-03-13T14:41:53.853Z,1.00
2023-03-13T14:44:27.325Z,1.00
2023-03-13T14:47:02.136Z,1.00
2023-03-13T14:49:32.435Z,1.00
2023-03-13T14:52:04.740Z,1.00
2023-03-13T14:54:36.534Z,1.00
2023-03-13T14:57:17.500Z,1.00
2023-03-13T14:59:47.456Z,1.00
2023-03-13T15:02:24.248Z,1.00
2023-03-13T15:04:57.448Z,1.00
2023-03-13T15:07:29.190Z,1.00
2023-03-13T15:10:00.778Z,1.00
2023-03-13T15:12:33.375Z,1.00
2023-03-13T15:15:03.196Z,1.00
2023-03-13T15:17:35.692Z,1.00
2023-03-13T15:20:09.544Z,1.00
2023-03-13T15:22:41.708Z,1.00
2023-03-13T15:25:18.627Z,1.00
2023-03-13T15:27:48.693Z,1.00
2023-03-13T15:30:20.007Z,1.00
2023-03-13T15:32:53.056Z,1.00
2023-03-13T15:35:30.079Z,1.00
2023-03-13T15:38:00.706Z,1.00
2023-03-13T15:40:31.078Z,1.00
2023-03-13T15:43:01.576Z,1.00
2023-03-13T15:45:31.396Z,1.00
2023-03-13T15:48:03.820Z,1.00
2023-03-13T15:50:33.592Z,1.00
2023-03-13T15:53:04.084Z,1.00
2023-03-13T15:55:34.108Z,1.00
2023-03-13T15:58:03.988Z,1.00
2023-03-13T16:00:33.780Z,1.00
2023-03-13T16:03:06.316Z,1.00
2023-03-13T16:05:36.041Z,1.00
2023-03-13T16:08:05.875Z,1.00
2023-03-13T16:10:36.393Z,1.00
2023-03-13T16:13:06.852Z,1.00
2023-03-13T16:15:36.613Z,1.00
2023-03-13T16:18:09.460Z,1.00
2023-03-13T16:20:39.243Z,1.00
2023-03-13T16:23:09.084Z,1.00
2023-03-13T16:25:40.071Z,1.00
2023-03-13T16:28:12.105Z,1.00
2023-03-13T16:30:43.712Z,1.00
2023-03-13T16:33:16.203Z,1.00
2023-03-13T16:35:45.989Z,1.00
2023-03-13T16:38:15.779Z,1.00
2023-03-13T16:40:45.562Z,1.00
2023-03-13T16:43:15.423Z,1.00
2023-03-13T16:45:46.745Z,1.00
2023-03-13T16:48:21.552Z,1.00
2023-03-13T16:50:51.579Z,1.00
2023-03-13T16:53:21.331Z,1.00
2023-03-13T16:55:52.900Z,1.00
2023-03-13T16:58:22.669Z,1.00
2023-03-13T17:01:04.538Z,1.00
2023-03-13T17:03:37.894Z,1.00
2023-03-13T17:06:08.388Z,1.00
2023-03-13T17:08:39.554Z,1.00
2023-03-13T17:11:09.644Z,1.00
2023-03-13T17:13:39.393Z,1.00
2023-03-13T17:16:18.110Z,1.00
2023-03-13T17:18:52.388Z,1.00
2023-03-13T17:21:25.211Z,1.00
2023-03-13T17:23:56.128Z,1.00
2023-03-13T17:26:28.705Z,1.00
2023-03-13T17:29:00.424Z,1.00
2023-03-13T17:31:37.251Z,1.00
2023-03-13T17:34:11.870Z,1.00
2023-03-13T17:36:42.008Z,1.00
2023-03-13T17:39:16.105Z,1.00
2023-03-13T17:41:45.927Z,1.00
2023-03-13T17:44:15.746Z,1.00
2023-03-13T17:46:46.985Z,1.00
2023-03-13T17:49:20.845Z,1.00
2023-03-13T17:51:51.475Z,1.00
2023-03-13T17:54:21.874Z,1.00
2023-03-13T17:56:52.313Z,1.00
2023-03-13T17:59:22.240Z,1.00
2023-03-13T18:01:52.061Z,1.00
2023-03-13T18:04:24.493Z,1.00
2023-03-13T18:06:54.372Z,1.00
2023-03-13T18:09:24.885Z,1.00
2023-03-13T18:11:54.677Z,1.00
2023-03-13T18:14:24.485Z,1.00
2023-03-13T18:16:57.213Z,1.00
2023-03-13T18:19:32.350Z,1.00
2023-03-13T18:22:02.099Z,1.00
2023-03-13T18:24:33.048Z,1.00
2023-03-13T18:27:04.121Z,1.00
2023-03-13T18:29:33.884Z,1.00
2023-03-13T18:32:03.817Z,1.00
2023-03-13T18:34:37.633Z,1.00
2023-03-13T18:37:18.771Z,1.00
2023-03-13T18:39:49.938Z,1.00
2023-03-13T18:42:19.954Z,1.00
2023-03-13T18:44:49.764Z,6.50
2023-03-13T18:47:21.521Z,10.80
2023-03-13T18:49:53.867Z,18.50
2023-03-13T18:52:23.622Z,24.10
2023-03-13T18:54:53.390Z,24.80
2023-03-13T18:57:24.224Z,27.80
2023-03-13T18:59:54.081Z,33.70
2023-03-13T19:02:24.084Z,33.70
2023-03-13T19:04:56.446Z,36.80
2023-03-13T19:07:30.202Z,39.30
2023-03-13T19:10:01.600Z,41.30
2023-03-13T19:12:31.406Z,42.30
2023-03-13T19:15:01.119Z,41.30
2023-03-13T19:17:32.276Z,44.60
2023-03-13T19:20:05.035Z,47.10
2023-03-13T19:22:34.783Z,49.50
2023-03-13T19:25:04.495Z,51.00
2023-03-13T19:27:34.215Z,51.60
2023-03-13T19:30:04.091Z,52.20
2023-03-13T19:32:33.974Z,53.90
2023-03-13T19:35:06.693Z,55.30
2023-03-13T19:37:36.467Z,56.60
2023-03-13T19:40:07.258Z,56.50
2023-03-13T19:42:37.000Z,57.00
2023-03-13T19:45:07.716Z,56.60
2023-03-13T19:47:37.592Z,56.10
2023-03-13T19:50:17.752Z,55.90
2023-03-13T19:52:48.118Z,56.40
2023-03-13T19:55:18.225Z,56.50
2023-03-13T19:57:47.993Z,57.20
2023-03-13T20:00:23.121Z,57.00
2023-03-13T20:02:55.163Z,57.60
2023-03-13T20:05:29.740Z,59.40
2023-03-13T20:07:59.335Z,60.30
2023-03-13T20:10:29.294Z,61.40
2023-03-13T20:12:59.004Z,63.10
2023-03-13T20:15:28.854Z,64.20
2023-03-13T20:17:58.651Z,66.10
2023-03-13T20:20:31.146Z,77.50
2023-03-13T20:23:00.972Z,61.00
2023-03-13T20:25:31.122Z,56.00
2023-03-13T20:28:01.033Z,57.00
2023-03-13T20:30:30.847Z,54.40
2023-03-13T20:33:00.775Z,54.30
2023-03-13T20:35:33.386Z,51.60
2023-03-13T20:38:05.118Z,51.60
2023-03-13T20:40:35.073Z,48.80
2023-03-13T20:43:05.073Z,50.50
2023-03-13T20:45:34.842Z,47.90
2023-03-13T20:48:04.659Z,50.40
2023-03-13T20:50:39.669Z,51.70
2023-03-13T20:53:10.098Z,53.10
2023-03-13T20:55:40.415Z,50.80
2023-03-13T20:58:10.562Z,51.10
2023-03-13T21:00:40.427Z,52.00
2023-03-13T21:03:10.336Z,48.30
2023-03-13T21:05:44.624Z,49.40
2023-03-13T21:08:14.634Z,49.70
2023-03-13T21:10:45.022Z,49.80
2023-03-13T21:13:14.784Z,49.00
2023-03-13T21:15:44.619Z,51.10
2023-03-13T21:18:14.426Z,52.40
2023-03-13T21:20:46.826Z,52.90
2023-03-13T21:23:16.559Z,53.80
2023-03-13T21:25:46.332Z,55.50
2023-03-13T21:28:16.141Z,56.10
2023-03-13T21:30:45.894Z,55.90
2023-03-13T21:33:15.889Z,55.50
2023-03-13T21:35:48.407Z,55.40
2023-03-13T21:38:18.239Z,56.50
2023-03-13T21:40:48.387Z,57.20
2023-03-13T21:43:18.220Z,57.60
2023-03-13T21:45:47.951Z,57.50
2023-03-13T21:48:17.750Z,57.50
2023-03-13T21:50:50.230Z,57.60
2023-03-13T21:53:20.085Z,57.50
2023-03-13T21:55:52.122Z,57.80
2023-03-13T21:58:21.932Z,58.10
2023-03-13T22:00:51.752Z,57.50
2023-03-13T22:03:21.520Z,57.50
2023-03-13T22:05:53.961Z,57.70
2023-03-13T22:08:23.790Z,57.20
2023-03-13T22:10:55.160Z,56.30
2023-03-13T22:13:24.981Z,55.70
2023-03-13T22:15:54.796Z,55.20
2023-03-13T22:18:24.607Z,54.50
2023-03-13T22:20:59.360Z,55.50
2023-03-13T22:23:29.952Z,55.60
2023-03-13T22:26:01.352Z,56.20
2023-03-13T22:28:31.167Z,56.70
2023-03-13T22:31:03.376Z,56.40
2023-03-13T22:33:33.634Z,58.20
2023-03-13T22:36:06.780Z,58.30
2023-03-13T22:38:38.989Z,57.60
2023-03-13T22:41:11.546Z,58.10
2023-03-13T22:43:41.306Z,58.50
2023-03-13T22:46:11.810Z,58.70
2023-03-13T22:48:42.687Z,59.00
2023-03-13T22:51:17.110Z,59.30
2023-03-13T22:53:46.894Z,59.30
2023-03-13T22:56:16.746Z,59.90
2023-03-13T22:58:46.510Z,59.90
2023-03-13T23:01:20.826Z,60.40
2023-03-13T23:03:50.657Z,60.00
2023-03-13T23:06:26.304Z,60.70
2023-03-13T23:08:56.449Z,60.80
2023-03-13T23:11:26.191Z,60.80
2023-03-13T23:13:56.033Z,60.10
2023-03-13T23:16:25.840Z,58.30
2023-03-13T23:18:55.622Z,57.30
2023-03-13T23:21:28.001Z,56.00
2023-03-13T23:23:57.732Z,55.10
2023-03-13T23:26:27.791Z,54.60
2023-03-13T23:28:57.567Z,55.20
2023-03-13T23:31:27.369Z,53.40
2023-03-13T23:33:59.078Z,53.30
2023-03-13T23:36:32.156Z,52.60
2023-03-13T23:39:03.035Z,51.30
2023-03-13T23:41:32.847Z,51.00
2023-03-13T23:44:02.938Z,48.80
2023-03-13T23:46:32.712Z,45.70
2023-03-13T23:49:02.441Z,45.50
2023-03-13T23:51:34.818Z,46.30
2023-03-13T23:54:04.586Z,46.10
2023-03-13T23:56:34.599Z,46.60
2023-03-13T23:59:04.338Z,47.50
